Time;durP1;ratioP1;P1;durP2;ratioP2;P2;SDS_P1;SDS_P2;PMS_P1;PMS_P2;Temp;Humidity;BMP_temperature;BMP_pressure;BME280_temperature;BME280_humidity;BME280_pressure;Samples;Min_cycle;Max_cycle;Signal;HPM_P1;HPM_P2
2023/03/01 00:00:15;;;;;;;23.63;14.60;;;3.40;85.30;;;;;;5096787;28;20043;-70
2023/03/01 00:02:41;;;;;;;18.50;12.07;;;3.40;85.50;;;;;;5089638;28;20056;-70
2023/03/01 00:05:07;;;;;;;21.65;13.55;;;3.40;85.50;;;;;;5090998;28;20047;-69
2023/03/01 00:07:33;;;;;;;19.13;12.65;;;3.40;85.60;;;;;;5093954;28;20423;-71
2023/03/01 00:09:59;;;;;;;20.27;13.07;;;3.40;85.70;;;;;;5073203;28;20039;-70
2023/03/01 00:12:24;;;;;;;21.25;13.30;;;3.30;85.60;;;;;;5086152;28;20076;-70
2023/03/01 00:14:50;;;;;;;23.63;13.07;;;3.30;85.60;;;;;;5093976;28;20035;-70
2023/03/01 00:17:16;;;;;;;22.40;14.02;;;3.30;85.70;;;;;;5094261;28;20027;-69
2023/03/01 00:19:42;;;;;;;19.20;13.35;;;3.30;85.80;;;;;;5105344;28;20132;-68
2023/03/01 00:22:08;;;;;;;20.50;13.07;;;3.30;85.90;;;;;;5108664;28;20059;-69
2023/03/01 00:24:33;;;;;;;24.98;13.32;;;3.20;86.00;;;;;;5104118;28;20183;-68
2023/03/01 00:26:59;;;;;;;22.00;12.30;;;3.20;86.10;;;;;;5112747;28;20019;-69
2023/03/01 00:29:25;;;;;;;18.48;11.93;;;3.20;86.10;;;;;;5101444;28;20054;-69
2023/03/01 00:31:51;;;;;;;22.17;13.52;;;3.30;86.10;;;;;;5098985;27;20028;-70
2023/03/01 00:34:17;;;;;;;22.40;13.23;;;3.20;86.00;;;;;;5101935;28;20115;-68
2023/03/01 00:36:43;;;;;;;20.92;13.52;;;3.20;86.10;;;;;;5108697;28;20028;-71
2023/03/01 00:39:13;;;;;;;20.40;14.73;;;3.20;86.10;;;;;;5099624;28;20036;-70
2023/03/01 00:41:40;;;;;;;23.00;13.63;;;3.20;86.10;;;;;;5099267;28;20028;-69
2023/03/01 00:44:05;;;;;;;22.95;13.15;;;3.20;86.20;;;;;;5099660;28;20023;-69
2023/03/01 00:46:31;;;;;;;23.35;14.60;;;3.10;86.20;;;;;;5111944;28;20043;-68
2023/03/01 00:48:56;;;;;;;22.40;14.50;;;3.10;86.30;;;;;;5102513;28;20042;-69
2023/03/01 00:51:25;;;;;;;23.17;13.40;;;3.10;86.40;;;;;;5097247;28;20726;-68
2023/03/01 00:53:52;;;;;;;21.92;13.80;;;3.10;86.60;;;;;;5094534;28;20028;-68
2023/03/01 00:56:19;;;;;;;22.23;13.38;;;3.00;86.70;;;;;;5104422;28;20028;-68
2023/03/01 00:58:44;;;;;;;23.48;14.10;;;3.10;86.90;;;;;;5095202;28;20529;-68
2023/03/01 01:01:19;;;;;;;22.08;13.38;;;3.00;87.10;;;;;;5097701;28;21574;-68
2023/03/01 01:03:52;;;;;;;22.33;12.90;;;3.00;87.20;;;;;;5082622;28;20029;-68
2023/03/01 01:06:23;;;;;;;19.27;12.32;;;3.00;87.30;;;;;;5092352;28;20036;-69
2023/03/01 01:08:50;;;;;;;21.05;13.93;;;3.00;87.30;;;;;;5094801;28;20024;-69
2023/03/01 01:11:16;;;;;;;21.88;13.25;;;3.10;87.40;;;;;;5104757;28;20012;-68
2023/03/01 01:13:43;;;;;;;18.85;12.68;;;3.10;87.50;;;;;;5093428;28;20023;-69
2023/03/01 01:16:09;;;;;;;22.50;13.48;;;3.10;87.40;;;;;;5103499;28;20086;-69
2023/03/01 01:18:34;;;;;;;19.73;13.63;;;3.10;87.30;;;;;;5094073;28;20040;-68
2023/03/01 01:21:05;;;;;;;25.23;14.88;;;3.10;87.40;;;;;;5103068;28;20034;-69
2023/03/01 01:23:31;;;;;;;21.45;13.95;;;3.10;87.50;;;;;;5092874;28;20032;-69
2023/03/01 01:25:56;;;;;;;21.55;13.27;;;3.10;87.50;;;;;;5090499;28;20027;-69
2023/03/01 01:28:22;;;;;;;25.95;13.55;;;3.10;87.50;;;;;;5091055;28;20109;-68
2023/03/01 01:30:47;;;;;;;20.70;13.10;;;3.10;87.60;;;;;;5091444;28;20387;-68
2023/03/01 01:33:13;;;;;;;23.98;13.60;;;3.00;87.70;;;;;;5093284;28;20054;-69
2023/03/01 01:35:39;;;;;;;24.75;13.82;;;3.10;87.80;;;;;;5090919;28;20071;-69
2023/03/01 01:38:04;;;;;;;19.13;12.45;;;3.10;87.90;;;;;;5074694;28;20391;-70
2023/03/01 01:40:30;;;;;;;20.45;12.07;;;3.10;87.90;;;;;;5107489;28;20032;-70
2023/03/01 01:42:55;;;;;;;23.90;12.32;;;3.10;87.90;;;;;;5091090;28;20119;-70
2023/03/01 01:45:24;;;;;;;17.42;11.70;;;3.00;88.00;;;;;;5106200;28;20115;-70
2023/03/01 01:47:52;;;;;;;20.40;11.63;;;3.00;88.00;;;;;;5096993;28;20036;-70
2023/03/01 01:50:19;;;;;;;20.13;11.38;;;3.00;88.00;;;;;;5106508;28;20110;-70
2023/03/01 01:52:46;;;;;;;19.70;12.73;;;3.10;88.10;;;;;;5111168;28;20024;-70
2023/03/01 01:55:20;;;;;;;19.80;11.77;;;3.00;88.00;;;;;;5092412;28;20032;-70
2023/03/01 01:57:50;;;;;;;17.33;10.65;;;3.00;88.40;;;;;;5090553;28;20133;-69
2023/03/01 02:00:22;;;;;;;18.45;10.88;;;3.00;87.90;;;;;;5090477;28;20109;-70
2023/03/01 02:02:54;;;;;;;19.67;12.68;;;3.00;87.90;;;;;;5096626;28;20076;-70
2023/03/01 02:06:00;;;;;;;17.83;11.05;;;3.00;88.00;;;;;;5109650;28;20028;-69
2023/03/01 02:08:32;;;;;;;22.15;12.35;;;3.00;88.10;;;;;;5100928;28;20034;-70
2023/03/01 02:10:59;;;;;;;22.83;12.40;;;3.00;88.10;;;;;;5103059;28;20028;-70
2023/03/01 02:13:26;;;;;;;20.23;12.23;;;3.00;88.30;;;;;;5088787;28;20052;-69
2023/03/01 02:15:52;;;;;;;21.65;11.80;;;3.00;88.40;;;;;;5090791;28;20026;-69
2023/03/01 02:18:20;;;;;;;21.65;12.93;;;2.90;88.40;;;;;;5094818;28;20028;-69
2023/03/01 02:20:58;;;;;;;22.60;12.90;;;2.90;88.50;;;;;;5109149;28;20039;-69
2023/03/01 02:23:25;;;;;;;21.85;13.13;;;2.90;88.60;;;;;;5090062;28;20020;-70
2023/03/01 02:26:09;;;;;;;18.13;11.57;;;2.90;88.60;;;;;;5109193;28;20492;-69
2023/03/01 02:28:42;;;;;;;18.80;11.05;;;2.90;88.80;;;;;;5071201;28;20037;-70
2023/03/01 02:33:55;;;;;;;20.05;12.30;;;2.80;88.90;;;;;;5091649;28;20111;-70
2023/03/01 02:36:25;;;;;;;16.90;11.57;;;2.80;88.90;;;;;;5093756;28;20024;-69
2023/03/01 02:38:55;;;;;;;19.02;12.13;;;2.80;88.90;;;;;;5090570;28;20024;-68
2023/03/01 02:41:23;;;;;;;18.85;11.32;;;2.80;88.90;;;;;;5095726;28;20074;-72
2023/03/01 02:43:49;;;;;;;15.77;10.73;;;2.80;89.00;;;;;;5110117;28;20020;-72
2023/03/01 02:46:20;;;;;;;17.05;10.48;;;2.80;89.10;;;;;;5094764;28;20095;-72
2023/03/01 02:48:55;;;;;;;18.02;10.65;;;2.80;89.20;;;;;;5091182;28;20024;-72
2023/03/01 02:51:32;;;;;;;18.73;11.90;;;2.70;89.10;;;;;;5092347;28;20043;-72
2023/03/01 02:54:25;;;;;;;15.85;9.43;;;2.70;89.20;;;;;;5095002;28;20425;-72
2023/03/01 02:56:52;;;;;;;20.58;10.95;;;2.70;89.30;;;;;;5095152;28;20032;-72
2023/03/01 02:59:21;;;;;;;16.35;11.07;;;2.70;89.30;;;;;;5093351;28;20055;-72
2023/03/01 03:01:46;;;;;;;22.88;11.50;;;2.70;89.40;;;;;;5095257;28;20031;-72
2023/03/01 03:04:16;;;;;;;17.10;10.23;;;2.70;89.40;;;;;;5091557;28;20033;-72
2023/03/01 03:06:45;;;;;;;20.25;10.73;;;2.60;89.50;;;;;;5103146;28;20024;-72
2023/03/01 03:09:12;;;;;;;17.15;10.48;;;2.60;89.60;;;;;;5112932;28;20106;-72
2023/03/01 03:11:40;;;;;;;17.17;10.25;;;2.50;89.70;;;;;;5111527;28;20024;-72
2023/03/01 03:14:12;;;;;;;18.35;11.38;;;2.50;89.90;;;;;;5095251;28;20035;-72
2023/03/01 03:16:41;;;;;;;17.20;11.15;;;2.40;89.90;;;;;;5111166;28;20027;-72
2023/03/01 03:19:07;;;;;;;20.73;11.25;;;2.50;90.00;;;;;;5101402;28;20387;-73
2023/03/01 03:21:34;;;;;;;20.67;12.25;;;2.40;90.10;;;;;;5102661;28;20078;-72
2023/03/01 03:23:59;;;;;;;19.13;10.85;;;2.40;90.20;;;;;;5102419;28;20383;-72
2023/03/01 03:26:25;;;;;;;17.20;11.05;;;2.30;90.20;;;;;;5107429;28;20024;-72
2023/03/01 03:28:51;;;;;;;18.23;11.90;;;2.30;90.30;;;;;;5094515;28;20032;-72
2023/03/01 03:31:17;;;;;;;18.17;12.00;;;2.30;90.30;;;;;;5102116;28;21562;-72
2023/03/01 03:33:42;;;;;;;19.13;11.98;;;2.20;90.20;;;;;;5109830;28;20020;-73
2023/03/01 03:36:12;;;;;;;20.08;11.88;;;2.20;90.30;;;;;;5104155;28;20052;-72
2023/03/01 03:38:39;;;;;;;19.58;11.25;;;2.20;90.40;;;;;;5084041;28;20040;-72
2023/03/01 03:41:07;;;;;;;21.13;11.70;;;2.20;90.40;;;;;;5089857;28;20028;-72
2023/03/01 03:43:36;;;;;;;17.60;11.75;;;2.20;90.70;;;;;;5094268;28;20483;-72
2023/03/01 03:46:05;;;;;;;19.40;12.35;;;2.10;90.50;;;;;;5103080;28;20035;-73
2023/03/01 03:48:34;;;;;;;18.25;12.43;;;2.10;90.50;;;;;;5092452;28;20035;-72
2023/03/01 03:50:59;;;;;;;18.10;12.25;;;2.10;90.60;;;;;;5095790;28;20032;-73
2023/03/01 03:53:27;;;;;;;20.48;12.35;;;2.10;90.50;;;;;;5106399;28;20363;-73
2023/03/01 03:55:53;;;;;;;18.63;10.48;;;2.10;90.50;;;;;;5102774;28;20490;-73
2023/03/01 03:58:21;;;;;;;17.88;11.15;;;2.10;90.60;;;;;;5093480;28;20076;-73
2023/03/01 04:00:49;;;;;;;20.88;12.40;;;2.00;90.70;;;;;;5100157;28;20073;-72
2023/03/01 04:03:16;;;;;;;18.75;10.93;;;2.00;90.70;;;;;;5086954;28;20036;-73
2023/03/01 04:05:42;;;;;;;22.13;12.15;;;2.00;90.80;;;;;;5087574;28;20031;-72
2023/03/01 04:08:08;;;;;;;25.48;12.88;;;2.00;90.90;;;;;;5084364;28;20025;-72
2023/03/01 04:10:42;;;;;;;18.95;11.82;;;2.00;90.90;;;;;;5098887;28;20482;-72
2023/03/01 04:13:11;;;;;;;23.30;13.50;;;1.90;91.00;;;;;;5106519;28;20028;-72
2023/03/01 04:15:37;;;;;;;18.65;12.98;;;1.90;91.00;;;;;;5097901;27;20035;-72
2023/03/01 04:18:04;;;;;;;24.65;13.77;;;1.90;91.00;;;;;;5093880;28;20028;-72
2023/03/01 04:20:34;;;;;;;20.55;12.38;;;2.00;91.00;;;;;;5090755;28;20039;-72
2023/03/01 04:23:20;;;;;;;22.33;13.55;;;1.90;91.00;;;;;;5091643;28;20028;-72
2023/03/01 04:25:55;;;;;;;21.08;12.95;;;1.90;91.10;;;;;;5095167;28;20553;-71
2023/03/01 04:28:25;;;;;;;24.20;13.15;;;1.90;91.10;;;;;;5092901;28;20111;-71
2023/03/01 04:30:51;;;;;;;23.85;12.90;;;1.80;91.10;;;;;;5093653;28;20036;-72
2023/03/01 04:33:17;;;;;;;22.48;13.40;;;1.80;91.20;;;;;;5093740;28;20027;-72
2023/03/01 04:35:43;;;;;;;23.48;14.38;;;1.80;91.20;;;;;;5093865;28;20065;-72
2023/03/01 04:38:09;;;;;;;25.20;15.07;;;1.80;91.20;;;;;;5102172;28;20040;-71
2023/03/01 04:40:35;;;;;;;21.75;13.98;;;1.80;91.30;;;;;;5087459;28;20033;-73
2023/03/01 04:43:01;;;;;;;20.73;13.65;;;1.80;91.30;;;;;;5094493;28;20448;-73
2023/03/01 04:45:27;;;;;;;21.10;13.77;;;1.80;91.20;;;;;;5105717;28;20426;-73
2023/03/01 04:47:53;;;;;;;23.15;13.52;;;1.80;91.30;;;;;;5089411;28;20069;-73
2023/03/01 04:50:20;;;;;;;23.98;15.05;;;1.80;91.40;;;;;;5091823;28;20024;-73
2023/03/01 04:52:46;;;;;;;22.77;15.07;;;1.80;91.40;;;;;;5093453;28;20089;-73
2023/03/01 04:55:12;;;;;;;29.52;16.65;;;1.80;91.50;;;;;;5093080;28;20063;-73
2023/03/01 04:57:39;;;;;;;29.30;16.10;;;1.80;91.50;;;;;;5099550;28;20048;-72
2023/03/01 05:00:19;;;;;;;22.70;14.82;;;1.80;91.40;;;;;;5100238;28;20032;-73
2023/03/01 05:02:48;;;;;;;24.35;15.63;;;1.70;91.40;;;;;;5072555;28;20028;-70
2023/03/01 05:05:14;;;;;;;28.23;16.58;;;1.70;91.50;;;;;;5092964;28;20081;-71
2023/03/01 05:07:39;;;;;;;32.25;17.42;;;1.70;91.50;;;;;;5109891;28;20027;-71
2023/03/01 05:10:05;;;;;;;24.20;15.63;;;1.70;91.60;;;;;;5090126;28;20509;-71
2023/03/01 05:12:31;;;;;;;28.40;18.77;;;1.70;91.60;;;;;;5104674;28;20038;-71
2023/03/01 05:14:56;;;;;;;28.38;17.35;;;1.60;91.70;;;;;;5090134;28;20024;-71
2023/03/01 05:17:22;;;;;;;35.58;19.45;;;1.60;91.80;;;;;;5092026;28;20043;-71
2023/03/01 05:19:47;;;;;;;28.50;17.23;;;1.70;91.80;;;;;;5083671;28;20040;-72
2023/03/01 05:22:13;;;;;;;30.77;17.27;;;1.70;91.90;;;;;;5076711;28;20028;-71
2023/03/01 05:24:38;;;;;;;27.33;17.23;;;1.60;91.90;;;;;;5092874;28;20031;-71
2023/03/01 05:27:06;;;;;;;26.33;18.38;;;1.60;92.00;;;;;;5103628;28;20383;-71
2023/03/01 05:29:34;;;;;;;27.50;16.98;;;1.60;92.00;;;;;;5091430;28;20040;-71
2023/03/01 05:32:02;;;;;;;31.45;16.70;;;1.60;92.00;;;;;;5104752;28;20032;-71
2023/03/01 05:34:33;;;;;;;26.63;16.52;;;1.60;91.90;;;;;;5105762;28;20094;-71
2023/03/01 05:36:59;;;;;;;25.88;16.38;;;1.60;92.10;;;;;;5095429;28;20493;-71
2023/03/01 05:39:27;;;;;;;30.75;17.10;;;1.60;91.90;;;;;;5090759;28;20129;-71
2023/03/01 05:41:56;;;;;;;26.52;15.82;;;1.60;92.00;;;;;;5098989;28;20031;-71
2023/03/01 05:44:23;;;;;;;29.00;16.52;;;1.60;92.00;;;;;;5112891;28;20374;-71
2023/03/01 05:46:49;;;;;;;31.63;17.70;;;1.60;92.00;;;;;;5086988;28;20479;-70
2023/03/01 05:49:15;;;;;;;27.95;16.88;;;1.60;92.00;;;;;;5086152;28;20020;-71
2023/03/01 05:51:43;;;;;;;24.52;15.80;;;1.50;92.10;;;;;;5104353;28;20077;-70
2023/03/01 05:54:11;;;;;;;25.55;15.82;;;1.50;92.10;;;;;;5080354;28;20039;-70
2023/03/01 05:56:37;;;;;;;30.65;18.27;;;1.50;92.10;;;;;;5087876;28;20020;-70
2023/03/01 05:59:07;;;;;;;25.65;17.45;;;1.60;92.10;;;;;;5087828;28;20534;-71
2023/03/01 06:01:34;;;;;;;26.75;16.75;;;1.60;92.20;;;;;;5100710;28;20089;-71
2023/03/01 06:04:00;;;;;;;29.90;18.63;;;1.60;92.20;;;;;;5109359;28;20334;-71
2023/03/01 06:06:25;;;;;;;32.38;20.10;;;1.60;92.30;;;;;;5101130;28;20229;-70
2023/03/01 06:08:52;;;;;;;28.40;17.95;;;1.60;92.40;;;;;;5091463;28;20024;-70
2023/03/01 06:11:18;;;;;;;33.85;21.17;;;1.60;92.40;;;;;;5092547;28;20082;-69
2023/03/01 06:13:44;;;;;;;32.22;20.05;;;1.60;92.60;;;;;;5090331;28;20032;-70
2023/03/01 06:16:10;;;;;;;29.55;18.23;;;1.60;92.40;;;;;;5089208;28;20066;-70
2023/03/01 06:18:36;;;;;;;32.80;19.45;;;1.60;92.50;;;;;;5091130;28;20060;-70
2023/03/01 06:21:03;;;;;;;31.60;18.85;;;1.60;92.50;;;;;;5093842;28;20031;-70
2023/03/01 06:23:28;;;;;;;33.45;20.90;;;1.70;92.50;;;;;;5105147;28;20020;-71
2023/03/01 06:25:54;;;;;;;36.40;20.30;;;1.70;92.50;;;;;;5088586;28;20377;-71
2023/03/01 06:28:20;;;;;;;34.72;19.88;;;1.70;92.60;;;;;;5089880;28;20040;-70
2023/03/01 06:30:46;;;;;;;32.65;20.05;;;1.80;92.70;;;;;;5096516;28;20054;-71
2023/03/01 06:33:12;;;;;;;30.52;18.50;;;1.80;92.70;;;;;;5108646;28;20089;-67
2023/03/01 06:35:37;;;;;;;30.02;20.10;;;1.80;92.70;;;;;;5096921;28;20274;-66
2023/03/01 06:38:06;;;;;;;32.03;18.17;;;1.90;92.80;;;;;;5114675;28;20035;-65
2023/03/01 06:40:31;;;;;;;26.98;17.23;;;1.90;92.90;;;;;;5094247;28;20036;-66
2023/03/01 06:42:57;;;;;;;32.83;17.33;;;1.90;92.90;;;;;;5085260;28;20028;-66
2023/03/01 06:45:23;;;;;;;27.05;16.35;;;1.90;92.90;;;;;;5087352;28;20032;-66
2023/03/01 06:47:50;;;;;;;33.78;18.13;;;2.00;92.90;;;;;;5100676;28;20027;-66
2023/03/01 06:50:17;;;;;;;27.15;16.83;;;2.00;92.90;;;;;;5095365;28;20024;-66
2023/03/01 06:52:44;;;;;;;27.80;18.00;;;2.00;92.90;;;;;;5093740;28;20104;-66
2023/03/01 06:55:11;;;;;;;30.98;19.23;;;2.10;92.90;;;;;;5093612;28;20029;-66
2023/03/01 06:57:36;;;;;;;40.53;21.00;;;2.10;92.90;;;;;;5092339;28;20392;-66
2023/03/01 07:00:04;;;;;;;36.35;20.30;;;2.10;93.00;;;;;;5098591;28;20044;-66
2023/03/01 07:02:29;;;;;;;43.00;24.33;;;2.20;93.00;;;;;;5089153;28;20495;-66
2023/03/01 07:04:55;;;;;;;44.45;26.70;;;2.20;93.00;;;;;;5089308;28;20059;-67
2023/03/01 07:07:21;;;;;;;36.67;21.75;;;2.30;93.10;;;;;;5092180;28;20050;-66
2023/03/01 07:09:48;;;;;;;35.95;22.40;;;2.40;93.10;;;;;;5093496;28;20093;-67
2023/03/01 07:12:13;;;;;;;38.15;24.05;;;2.40;93.10;;;;;;5093211;28;20024;-67
2023/03/01 07:14:39;;;;;;;34.88;20.67;;;2.40;93.10;;;;;;5077090;28;20038;-68
2023/03/01 07:17:05;;;;;;;37.60;21.23;;;2.40;93.10;;;;;;5081291;28;20372;-68
2023/03/01 07:19:30;;;;;;;28.58;19.38;;;2.40;93.10;;;;;;5086462;28;20037;-69
2023/03/01 07:21:56;;;;;;;32.08;19.90;;;2.50;93.10;;;;;;5099130;28;20024;-68
2023/03/01 07:24:22;;;;;;;31.73;18.70;;;2.50;93.10;;;;;;5079506;28;20036;-68
2023/03/01 07:26:50;;;;;;;29.77;18.67;;;2.60;93.10;;;;;;5090808;28;21000;-67
2023/03/01 07:29:16;;;;;;;29.95;20.50;;;2.70;93.10;;;;;;5090623;28;20024;-69
2023/03/01 07:31:42;;;;;;;29.70;18.88;;;2.70;93.00;;;;;;5094602;28;20035;-69
2023/03/01 07:34:07;;;;;;;34.03;20.73;;;2.80;93.00;;;;;;5097119;28;20032;-69
2023/03/01 07:36:33;;;;;;;31.58;18.02;;;2.80;93.10;;;;;;5092421;28;20536;-69
2023/03/01 07:39:02;;;;;;;31.30;17.45;;;2.90;93.50;;;;;;5093774;28;20478;-70
2023/03/01 07:41:27;;;;;;;27.55;18.08;;;2.90;93.20;;;;;;5074180;28;20136;-70
2023/03/01 07:43:53;;;;;;;30.23;18.50;;;3.00;93.10;;;;;;5102352;28;20522;-69
2023/03/01 07:46:19;;;;;;;27.80;18.00;;;3.00;93.10;;;;;;5081208;28;20539;-70
2023/03/01 07:48:44;;;;;;;26.63;17.15;;;3.10;93.10;;;;;;5083507;28;20395;-69
2023/03/01 07:51:11;;;;;;;32.05;19.83;;;3.10;93.10;;;;;;5092587;28;20479;-69
2023/03/01 07:53:36;;;;;;;27.63;17.25;;;3.10;93.10;;;;;;5110925;28;20046;-69
2023/03/01 07:56:06;;;;;;;34.35;19.52;;;3.20;93.20;;;;;;5093214;28;20028;-68
2023/03/01 07:58:35;;;;;;;32.38;18.75;;;3.30;93.20;;;;;;5096453;28;20052;-70
2023/03/01 08:01:05;;;;;;;25.40;17.45;;;3.30;93.20;;;;;;5102263;28;20032;-69
2023/03/01 08:03:31;;;;;;;29.10;18.30;;;3.40;93.20;;;;;;5091519;28;20502;-70
2023/03/01 08:05:59;;;;;;;26.27;17.45;;;3.40;93.20;;;;;;5098037;28;20080;-69
2023/03/01 08:08:25;;;;;;;25.95;17.48;;;3.50;93.20;;;;;;5098737;28;20050;-70
2023/03/01 08:10:51;;;;;;;31.02;18.05;;;3.60;93.10;;;;;;5099244;28;20028;-70
2023/03/01 08:13:22;;;;;;;25.23;16.10;;;3.60;93.00;;;;;;5099391;28;20059;-70
2023/03/01 08:15:48;;;;;;;25.30;15.82;;;3.60;93.00;;;;;;5098669;28;20107;-70
2023/03/01 08:18:14;;;;;;;23.83;15.73;;;3.70;92.90;;;;;;5089364;28;20126;-70
2023/03/01 08:20:40;;;;;;;25.85;15.50;;;3.70;92.80;;;;;;5099018;28;20028;-70
2023/03/01 08:23:05;;;;;;;22.52;13.85;;;3.80;92.70;;;;;;5096949;28;20031;-70
2023/03/01 08:25:31;;;;;;;24.02;16.23;;;3.90;92.60;;;;;;5106135;28;20532;-70
2023/03/01 08:27:57;;;;;;;23.83;13.60;;;3.90;92.40;;;;;;5103952;28;20110;-70
2023/03/01 08:30:23;;;;;;;18.77;11.75;;;4.00;92.40;;;;;;5106721;28;20038;-75
2023/03/01 08:32:49;;;;;;;17.42;11.50;;;4.10;92.30;;;;;;5108484;28;20084;-73
2023/03/01 08:35:15;;;;;;;19.40;11.82;;;4.10;92.10;;;;;;5088007;28;20020;-73
2023/03/01 08:37:41;;;;;;;18.55;12.38;;;4.20;92.00;;;;;;5095771;28;20047;-74
2023/03/01 08:40:08;;;;;;;18.45;12.05;;;4.20;92.00;;;;;;5101926;28;20039;-74
2023/03/01 08:42:34;;;;;;;19.75;11.68;;;4.30;91.90;;;;;;5108061;28;20038;-73
2023/03/01 08:44:59;;;;;;;24.80;13.20;;;4.40;91.80;;;;;;5092561;28;20122;-74
2023/03/01 08:47:26;;;;;;;18.05;11.93;;;4.40;91.70;;;;;;5101005;28;20035;-74
2023/03/01 08:49:52;;;;;;;17.95;11.35;;;4.50;91.50;;;;;;5112937;28;20036;-74
2023/03/01 08:52:19;;;;;;;17.55;12.25;;;4.50;91.40;;;;;;5110704;28;20039;-73
2023/03/01 08:54:44;;;;;;;21.35;12.02;;;4.60;91.30;;;;;;5096123;28;20040;-74
2023/03/01 08:57:10;;;;;;;15.45;10.73;;;4.60;91.20;;;;;;5099537;28;20039;-74
2023/03/01 08:59:37;;;;;;;16.92;9.60;;;4.70;91.10;;;;;;5108413;28;20035;-74
2023/03/01 09:02:04;;;;;;;16.45;11.23;;;4.70;91.00;;;;;;5093692;28;20050;-75
2023/03/01 09:04:29;;;;;;;14.35;9.02;;;4.80;90.90;;;;;;5097422;28;20548;-75
2023/03/01 09:06:55;;;;;;;18.05;10.23;;;4.90;90.90;;;;;;5107159;28;20124;-75
2023/03/01 09:09:21;;;;;;;19.77;10.48;;;4.90;90.70;;;;;;5100275;28;20035;-75
2023/03/01 09:11:46;;;;;;;14.15;8.60;;;5.00;90.70;;;;;;5100026;28;20032;-76
2023/03/01 09:14:13;;;;;;;14.65;8.60;;;5.00;90.50;;;;;;5111157;28;20028;-76
2023/03/01 09:16:39;;;;;;;13.30;7.72;;;5.00;90.30;;;;;;5095758;28;20028;-75
2023/03/01 09:19:05;;;;;;;12.05;7.85;;;5.10;90.20;;;;;;5108210;28;20514;-75
2023/03/01 09:21:31;;;;;;;10.90;7.25;;;5.10;90.10;;;;;;5086997;28;20028;-75
2023/03/01 09:23:58;;;;;;;10.25;6.70;;;5.20;89.90;;;;;;5091838;28;20115;-75
2023/03/01 09:26:24;;;;;;;15.20;8.18;;;5.20;89.30;;;;;;5101223;28;20148;-76
2023/03/01 09:28:53;;;;;;;10.75;7.38;;;5.20;89.00;;;;;;5109875;28;20084;-75
2023/03/01 09:31:20;;;;;;;11.10;7.40;;;5.20;88.90;;;;;;5110612;28;20031;-73
2023/03/01 09:33:48;;;;;;;11.50;7.07;;;5.30;88.80;;;;;;5084391;28;20474;-75
2023/03/01 09:36:20;;;;;;;11.82;7.93;;;5.30;88.50;;;;;;5090755;28;20035;-75
2023/03/01 09:38:47;;;;;;;11.95;7.45;;;5.40;88.20;;;;;;5086704;28;20028;-75
2023/03/01 09:41:43;;;;;;;13.48;6.95;;;5.50;88.30;;;;;;5080782;28;20032;-75
2023/03/01 09:44:13;;;;;;;12.38;7.00;;;5.50;87.80;;;;;;5081280;28;20494;-75
2023/03/01 09:46:43;;;;;;;8.80;5.93;;;5.50;86.20;;;;;;5093388;28;20024;-75
2023/03/01 09:49:28;;;;;;;10.40;6.03;;;5.50;85.60;;;;;;5092561;28;20024;-76
2023/03/01 09:52:32;;;;;;;11.48;5.57;;;5.50;85.30;;;;;;5083148;28;20038;-76
2023/03/01 09:54:57;;;;;;;7.97;4.88;;;5.50;84.80;;;;;;5086255;28;20028;-75
2023/03/01 09:57:41;;;;;;;9.40;5.95;;;5.60;85.50;;;;;;5091736;28;20407;-75
2023/03/01 10:00:20;;;;;;;7.95;4.75;;;5.60;85.60;;;;;;5090509;28;20028;-75
2023/03/01 10:02:52;;;;;;;6.90;4.35;;;5.70;85.00;;;;;;5082342;28;20115;-76
2023/03/01 10:05:43;;;;;;;10.20;5.07;;;5.80;84.50;;;;;;5088284;28;20028;-76
2023/03/01 10:08:14;;;;;;;9.50;5.35;;;5.90;84.30;;;;;;5093681;28;20031;-76
2023/03/01 10:10:45;;;;;;;5.53;4.13;;;6.00;84.40;;;;;;5089214;28;20459;-76
2023/03/01 10:13:23;;;;;;;8.45;4.35;;;6.00;83.90;;;;;;5103092;28;20119;-77
2023/03/01 10:16:17;;;;;;;9.10;4.63;;;6.00;82.90;;;;;;5084587;28;20032;-77
2023/03/01 10:18:47;;;;;;;8.73;5.25;;;6.10;83.10;;;;;;5098099;28;20075;-76
2023/03/01 10:21:18;;;;;;;10.90;4.95;;;6.20;82.60;;;;;;5095551;28;20125;-75
2023/03/01 10:23:45;;;;;;;9.32;5.47;;;6.20;82.50;;;;;;5101964;28;20459;-75
2023/03/01 10:26:27;;;;;;;9.35;4.88;;;6.20;81.70;;;;;;5092895;28;20044;-75
2023/03/01 10:30:00;;;;;;;10.27;4.85;;;6.20;81.50;;;;;;5107489;28;20062;-75
2023/03/01 10:32:26;;;;;;;7.07;4.25;;;6.30;81.30;;;;;;4978204;28;20121;-75
2023/03/01 10:34:51;;;;;;;6.80;4.68;;;6.30;81.70;;;;;;5007331;28;20061;-75
2023/03/01 10:37:21;;;;;;;9.57;5.30;;;6.30;81.70;;;;;;5056732;28;20187;-75
2023/03/01 10:40:08;;;;;;;8.27;4.85;;;6.40;80.90;;;;;;5108613;28;20088;-75
2023/03/01 10:42:45;;;;;;;7.43;4.43;;;6.40;79.60;;;;;;5101853;28;20035;-75
2023/03/01 10:45:28;;;;;;;8.68;4.55;;;6.50;80.70;;;;;;5089311;28;20035;-75
2023/03/01 10:48:15;;;;;;;8.02;4.80;;;6.50;80.70;;;;;;5105242;28;20050;-76
2023/03/01 10:51:09;;;;;;;12.82;5.72;;;6.60;80.40;;;;;;5072256;28;20024;-76
2023/03/01 10:53:50;;;;;;;9.57;5.07;;;6.60;79.30;;;;;;5098003;28;20035;-75
2023/03/01 10:56:16;;;;;;;7.80;4.70;;;6.70;80.00;;;;;;5107852;28;20493;-75
2023/03/01 10:58:58;;;;;;;9.00;4.65;;;6.80;79.30;;;;;;5099729;28;20058;-76
2023/03/01 11:01:25;;;;;;;5.85;4.05;;;6.70;79.20;;;;;;5107708;28;20404;-76
2023/03/01 11:04:23;;;;;;;9.73;5.40;;;6.70;79.30;;;;;;5090493;28;20016;-76
2023/03/01 11:06:59;;;;;;;8.85;4.90;;;6.80;78.80;;;;;;5065796;28;20108;-75
2023/03/01 11:09:27;;;;;;;10.55;4.90;;;6.80;78.70;;;;;;5096486;28;20504;-75
2023/03/01 11:11:57;;;;;;;7.43;4.32;;;6.90;79.10;;;;;;5090793;28;20071;-75
2023/03/01 11:14:32;;;;;;;6.15;3.60;;;6.90;78.30;;;;;;5092272;28;20213;-75
2023/03/01 11:17:24;;;;;;;7.90;4.18;;;7.00;77.60;;;;;;5093739;28;20043;-75
2023/03/01 11:20:14;;;;;;;7.13;4.28;;;7.00;77.20;;;;;;5091807;28;20127;-76
2023/03/01 11:23:03;;;;;;;6.15;4.70;;;7.00;77.00;;;;;;5099680;28;20028;-75
2023/03/01 11:25:35;;;;;;;7.22;4.28;;;7.00;76.80;;;;;;5097872;28;20031;-75
2023/03/01 11:28:05;;;;;;;7.05;4.25;;;7.10;77.20;;;;;;5098176;28;20028;-75
2023/03/01 11:31:00;;;;;;;6.32;4.25;;;7.10;77.20;;;;;;5108356;28;20027;-76
2023/03/01 11:33:33;;;;;;;6.93;3.80;;;7.20;76.80;;;;;;5092620;28;20032;-75
2023/03/01 11:36:05;;;;;;;7.03;4.40;;;7.30;77.00;;;;;;5088555;28;20039;-74
2023/03/01 11:38:35;;;;;;;6.72;4.55;;;7.30;76.70;;;;;;5113259;28;20490;-74
2023/03/01 11:41:16;;;;;;;7.00;4.20;;;7.40;75.90;;;;;;5101270;28;20411;-75
2023/03/01 11:44:17;;;;;;;9.10;5.05;;;7.40;76.00;;;;;;5073767;28;20024;-74
2023/03/01 11:46:58;;;;;;;5.45;3.45;;;7.50;75.80;;;;;;5077522;28;20048;-74
2023/03/01 11:49:54;;;;;;;6.95;3.92;;;7.60;76.10;;;;;;5109093;28;20024;-74
2023/03/01 11:52:20;;;;;;;7.55;3.88;;;7.70;76.10;;;;;;5112919;28;20028;-75
2023/03/01 11:55:07;;;;;;;4.78;3.28;;;7.80;75.60;;;;;;5103304;28;20019;-75
2023/03/01 11:58:02;;;;;;;6.13;3.58;;;7.80;74.70;;;;;;5091891;28;20071;-75
2023/03/01 12:01:05;;;;;;;4.97;2.40;;;7.80;73.70;;;;;;5104240;28;20084;-75
2023/03/01 12:03:33;;;;;;;5.97;2.55;;;7.80;69.20;;;;;;5105381;28;20123;-76
2023/03/01 12:06:23;;;;;;;4.65;2.47;;;7.70;69.40;;;;;;5105536;28;20068;-76
2023/03/01 12:08:52;;;;;;;5.47;2.65;;;7.70;70.00;;;;;;5095554;28;20020;-76
2023/03/01 12:11:57;;;;;;;6.50;3.03;;;7.90;70.50;;;;;;5093678;28;20050;-76
2023/03/01 12:14:31;;;;;;;5.13;2.45;;;7.80;70.30;;;;;;5071783;28;20044;-76
2023/03/01 12:17:06;;;;;;;5.22;2.75;;;7.90;70.80;;;;;;5094570;28;20028;-76
2023/03/01 12:19:37;;;;;;;5.03;3.00;;;7.90;70.10;;;;;;5097229;28;20580;-76
2023/03/01 12:22:29;;;;;;;7.20;3.13;;;8.00;70.20;;;;;;5101369;28;20064;-74
2023/03/01 12:25:13;;;;;;;4.70;2.90;;;7.90;70.00;;;;;;5095988;28;20031;-75
2023/03/01 12:28:00;;;;;;;5.47;2.80;;;8.00;69.90;;;;;;5093921;28;20025;-75
2023/03/01 12:30:32;;;;;;;4.45;2.67;;;8.10;69.60;;;;;;5082300;28;20024;-75
2023/03/01 12:33:05;;;;;;;6.97;2.50;;;8.10;66.80;;;;;;5095008;28;20039;-76
2023/03/01 12:35:38;;;;;;;3.75;2.28;;;8.10;67.20;;;;;;5080161;28;20024;-75
2023/03/01 12:38:20;;;;;;;5.55;2.38;;;8.10;66.90;;;;;;5071591;28;20039;-75
2023/03/01 12:41:04;;;;;;;4.45;2.83;;;8.10;66.40;;;;;;5084616;28;20040;-75
2023/03/01 12:43:58;;;;;;;4.88;2.53;;;8.20;67.20;;;;;;5092381;28;20035;-74
2023/03/01 12:46:54;;;;;;;5.22;2.35;;;8.20;66.50;;;;;;5091091;28;20039;-75
2023/03/01 12:49:31;;;;;;;3.75;2.28;;;8.30;65.90;;;;;;5101117;28;20023;-75
2023/03/01 12:52:22;;;;;;;4.35;2.33;;;8.30;65.80;;;;;;5109392;28;20027;-75
2023/03/01 12:54:51;;;;;;;4.03;2.50;;;8.30;65.70;;;;;;5090683;28;20028;-75
2023/03/01 12:57:36;;;;;;;6.43;3.40;;;8.30;65.40;;;;;;5101872;28;20052;-74
2023/03/01 13:00:30;;;;;;;4.50;2.70;;;8.30;65.50;;;;;;5103811;28;20028;-74
2023/03/01 13:03:23;;;;;;;3.88;2.63;;;8.30;63.70;;;;;;5091603;28;20020;-75